sensor_id;sensor_type;location;lat;lon;timestamp;pressure;altitude;pressure_sealevel;temperature;humidity
27294;BME280;14785;52.556;13.430;2024-02-26T00:02:18;-19660.69;;;8.67;100.00
27294;BME280;14785;52.556;13.430;2024-02-26T00:04:43;-19662.06;;;8.72;100.00
27294;BME280;14785;52.556;13.430;2024-02-26T00:07:09;-19660.84;;;8.68;100.00
27294;BME280;14785;52.556;13.430;2024-02-26T00:09:34;-19659.94;;;8.65;100.00
27294;BME280;14785;52.556;13.430;2024-02-26T00:12:04;-19659.63;;;8.64;100.00
27294;BME280;14785;52.556;13.430;2024-02-26T00:14:30;-19658.13;;;8.59;100.00
27294;BME280;14785;52.556;13.430;2024-02-26T00:16:56;-19657.97;;;8.58;100.00
27294;BME280;14785;52.556;13.430;2024-02-26T00:19:21;-19654.16;;;8.46;100.00
27294;BME280;14785;52.556;13.430;2024-02-26T00:21:46;-19649.47;;;8.30;100.00
27294;BME280;14785;52.556;13.430;2024-02-26T00:24:12;-19646.56;;;8.21;100.00
27294;BME280;14785;52.556;13.430;2024-02-26T00:26:37;-19645.06;;;8.16;100.00
27294;BME280;14785;52.556;13.430;2024-02-26T00:29:03;-19643.22;;;8.10;100.00
27294;BME280;14785;52.556;13.430;2024-02-26T00:31:28;-19641.88;;;8.05;100.00
27294;BME280;14785;52.556;13.430;2024-02-26T00:33:54;-19641.56;;;8.04;100.00
27294;BME280;14785;52.556;13.430;2024-02-26T00:36:19;-19545.84;;;8.07;100.00
27294;BME280;14785;52.556;13.430;2024-02-26T00:38:44;-19321.66;;;8.18;100.00
27294;BME280;14785;52.556;13.430;2024-02-26T00:41:15;-19514.44;;;8.13;100.00
27294;BME280;14785;52.556;13.430;2024-02-26T00:43:42;-19349.66;;;8.09;100.00
27294;BME280;14785;52.556;13.430;2024-02-26T00:46:07;-19206.50;;;7.74;100.00
27294;BME280;14785;52.556;13.430;2024-02-26T00:48:33;-18975.38;;;7.52;100.00
27294;BME280;14785;52.556;13.430;2024-02-26T00:50:58;-17434.03;;;7.77;100.00
27294;BME280;14785;52.556;13.430;2024-02-26T00:53:24;-16221.56;;;7.96;100.00
27294;BME280;14785;52.556;13.430;2024-02-26T00:55:50;-17851.81;;;8.10;100.00
27294;BME280;14785;52.556;13.430;2024-02-26T00:58:16;-17529.31;;;8.09;100.00
27294;BME280;14785;52.556;13.430;2024-02-26T01:00:41;-17753.25;;;8.05;100.00
27294;BME280;14785;52.556;13.430;2024-02-26T01:03:07;-18132.06;;;8.15;100.00
27294;BME280;14785;52.556;13.430;2024-02-26T01:05:32;-18606.63;;;8.03;100.00
27294;BME280;14785;52.556;13.430;2024-02-26T01:07:58;-19516.22;;;8.02;100.00
27294;BME280;14785;52.556;13.430;2024-02-26T01:10:23;-18959.88;;;7.96;100.00
27294;BME280;14785;52.556;13.430;2024-02-26T01:12:49;-17972.38;;;7.93;100.00
27294;BME280;14785;52.556;13.430;2024-02-26T01:15:14;-18724.31;;;7.67;100.00
27294;BME280;14785;52.556;13.430;2024-02-26T01:17:40;-17401.06;;;7.78;100.00
27294;BME280;14785;52.556;13.430;2024-02-26T01:20:05;-18398.41;;;7.71;100.00
27294;BME280;14785;52.556;13.430;2024-02-26T01:22:31;-16467.91;;;7.78;100.00
27294;BME280;14785;52.556;13.430;2024-02-26T01:24:56;-16039.19;;;7.82;100.00
27294;BME280;14785;52.556;13.430;2024-02-26T01:27:22;-15725.44;;;7.86;100.00
27294;BME280;14785;52.556;13.430;2024-02-26T01:29:52;-16204.34;;;7.88;100.00
27294;BME280;14785;52.556;13.430;2024-02-26T01:32:17;-16614.44;;;7.92;100.00
27294;BME280;14785;52.556;13.430;2024-02-26T01:34:44;-17010.88;;;7.82;100.00
27294;BME280;14785;52.556;13.430;2024-02-26T01:37:09;-16357.16;;;7.86;100.00
27294;BME280;14785;52.556;13.430;2024-02-26T01:39:37;-16443.09;;;7.81;100.00
27294;BME280;14785;52.556;13.430;2024-02-26T01:42:04;-15158.94;;;7.92;100.00
27294;BME280;14785;52.556;13.430;2024-02-26T01:44:29;-16880.00;;;7.90;100.00
27294;BME280;14785;52.556;13.430;2024-02-26T01:46:55;-16096.88;;;7.77;100.00
27294;BME280;14785;52.556;13.430;2024-02-26T01:49:20;-15984.97;;;7.69;100.00
27294;BME280;14785;52.556;13.430;2024-02-26T01:51:48;-16003.94;;;7.63;100.00
27294;BME280;14785;52.556;13.430;2024-02-26T01:54:14;-17107.06;;;7.39;100.00
27294;BME280;14785;52.556;13.430;2024-02-26T01:56:41;-17386.47;;;7.14;100.00
27294;BME280;14785;52.556;13.430;2024-02-26T01:59:08;-15085.56;;;7.28;100.00
27294;BME280;14785;52.556;13.430;2024-02-26T02:01:34;-16103.59;;;7.11;100.00
27294;BME280;14785;52.556;13.430;2024-02-26T02:04:00;-15234.72;;;7.10;100.00
27294;BME280;14785;52.556;13.430;2024-02-26T02:06:26;-11603.16;;;7.32;100.00
27294;BME280;14785;52.556;13.430;2024-02-26T02:08:56;-11047.50;;;7.46;100.00
27294;BME280;14785;52.556;13.430;2024-02-26T02:11:22;-12247.41;;;7.43;100.00
27294;BME280;14785;52.556;13.430;2024-02-26T02:13:47;-12385.41;;;7.42;100.00
27294;BME280;14785;52.556;13.430;2024-02-26T02:16:13;-12279.88;;;7.53;100.00
27294;BME280;14785;52.556;13.430;2024-02-26T02:18:39;-13090.53;;;7.50;100.00
27294;BME280;14785;52.556;13.430;2024-02-26T02:21:04;-15461.59;;;7.51;100.00
27294;BME280;14785;52.556;13.430;2024-02-26T02:23:29;-15645.56;;;7.51;100.00
27294;BME280;14785;52.556;13.430;2024-02-26T02:25:56;-15931.25;;;7.48;100.00
27294;BME280;14785;52.556;13.430;2024-02-26T02:28:23;-15222.09;;;7.44;100.00
27294;BME280;14785;52.556;13.430;2024-02-26T02:30:50;-14463.94;;;7.49;100.00
27294;BME280;14785;52.556;13.430;2024-02-26T02:33:17;-13987.28;;;7.33;100.00
27294;BME280;14785;52.556;13.430;2024-02-26T02:35:42;-13577.19;;;7.28;100.00
27294;BME280;14785;52.556;13.430;2024-02-26T02:38:08;-13317.34;;;7.33;100.00
27294;BME280;14785;52.556;13.430;2024-02-26T02:40:33;-14345.66;;;7.35;100.00
27294;BME280;14785;52.556;13.430;2024-02-26T02:42:59;-17182.81;;;7.26;100.00
27294;BME280;14785;52.556;13.430;2024-02-26T02:45:25;-15641.19;;;7.11;100.00
27294;BME280;14785;52.556;13.430;2024-02-26T02:47:50;-14374.50;;;7.26;100.00
27294;BME280;14785;52.556;13.430;2024-02-26T02:50:16;-15109.97;;;7.23;100.00
27294;BME280;14785;52.556;13.430;2024-02-26T02:52:41;-15461.66;;;7.08;100.00
27294;BME280;14785;52.556;13.430;2024-02-26T02:55:07;-15773.69;;;6.99;100.00
27294;BME280;14785;52.556;13.430;2024-02-26T02:57:34;-15239.81;;;6.88;100.00
27294;BME280;14785;52.556;13.430;2024-02-26T03:00:00;-14349.50;;;6.82;100.00
27294;BME280;14785;52.556;13.430;2024-02-26T03:02:25;-12832.56;;;6.87;100.00
27294;BME280;14785;52.556;13.430;2024-02-26T03:04:52;-10958.69;;;7.04;100.00
27294;BME280;14785;52.556;13.430;2024-02-26T03:07:17;-12557.38;;;7.18;100.00
27294;BME280;14785;52.556;13.430;2024-02-26T03:09:43;-13059.03;;;7.20;100.00
27294;BME280;14785;52.556;13.430;2024-02-26T03:12:08;-14009.97;;;7.19;100.00
27294;BME280;14785;52.556;13.430;2024-02-26T03:14:33;-13996.53;;;7.16;100.00
27294;BME280;14785;52.556;13.430;2024-02-26T03:16:59;-13854.50;;;6.97;100.00
27294;BME280;14785;52.556;13.430;2024-02-26T03:19:24;-12416.66;;;7.04;100.00
27294;BME280;14785;52.556;13.430;2024-02-26T03:21:50;-13188.38;;;7.02;100.00
27294;BME280;14785;52.556;13.430;2024-02-26T03:24:15;-12545.63;;;7.10;100.00
27294;BME280;14785;52.556;13.430;2024-02-26T03:26:40;-12071.59;;;7.19;100.00
27294;BME280;14785;52.556;13.430;2024-02-26T03:29:06;-11711.97;;;7.11;100.00
27294;BME280;14785;52.556;13.430;2024-02-26T03:31:31;-11773.00;;;7.23;100.00
27294;BME280;14785;52.556;13.430;2024-02-26T03:33:58;-12638.56;;;7.28;100.00
27294;BME280;14785;52.556;13.430;2024-02-26T03:36:24;-12482.34;;;7.27;100.00
27294;BME280;14785;52.556;13.430;2024-02-26T03:38:49;-12604.94;;;7.26;100.00
27294;BME280;14785;52.556;13.430;2024-02-26T03:41:17;-12487.84;;;7.29;100.00
27294;BME280;14785;52.556;13.430;2024-02-26T03:43:42;-14018.28;;;7.34;100.00
27294;BME280;14785;52.556;13.430;2024-02-26T03:46:08;-13280.66;;;7.29;100.00
27294;BME280;14785;52.556;13.430;2024-02-26T03:48:36;-12708.41;;;7.32;100.00
27294;BME280;14785;52.556;13.430;2024-02-26T03:51:02;-13263.44;;;7.32;100.00
27294;BME280;14785;52.556;13.430;2024-02-26T03:53:27;-13587.41;;;7.28;100.00
27294;BME280;14785;52.556;13.430;2024-02-26T03:55:53;-13638.97;;;7.30;100.00
27294;BME280;14785;52.556;13.430;2024-02-26T03:58:20;-13271.31;;;7.33;100.00
27294;BME280;14785;52.556;13.430;2024-02-26T04:00:46;-14470.19;;;7.31;100.00
27294;BME280;14785;52.556;13.430;2024-02-26T04:03:13;-14942.66;;;7.29;100.00
27294;BME280;14785;52.556;13.430;2024-02-26T04:05:38;-15140.19;;;7.21;100.00
27294;BME280;14785;52.556;13.430;2024-02-26T04:08:04;-14066.00;;;7.18;100.00
27294;BME280;14785;52.556;13.430;2024-02-26T04:10:32;-14148.84;;;7.11;100.00
27294;BME280;14785;52.556;13.430;2024-02-26T04:12:57;-14700.44;;;7.09;100.00
27294;BME280;14785;52.556;13.430;2024-02-26T04:15:23;-13769.84;;;7.20;100.00
27294;BME280;14785;52.556;13.430;2024-02-26T04:17:49;-15662.91;;;6.95;100.00
27294;BME280;14785;52.556;13.430;2024-02-26T04:20:15;-14070.63;;;6.92;100.00
27294;BME280;14785;52.556;13.430;2024-02-26T04:22:44;-14180.28;;;6.91;100.00
27294;BME280;14785;52.556;13.430;2024-02-26T04:25:10;-12388.44;;;6.90;100.00
27294;BME280;14785;52.556;13.430;2024-02-26T04:27:36;-11577.69;;;6.89;100.00
27294;BME280;14785;52.556;13.430;2024-02-26T04:30:02;-12897.19;;;6.77;100.00
27294;BME280;14785;52.556;13.430;2024-02-26T04:32:32;-12427.22;;;6.52;100.00
27294;BME280;14785;52.556;13.430;2024-02-26T04:34:57;-11478.25;;;6.31;100.00
27294;BME280;14785;52.556;13.430;2024-02-26T04:37:23;-10138.19;;;6.24;100.00
27294;BME280;14785;52.556;13.430;2024-02-26T04:39:49;-8528.19;;;6.27;100.00
27294;BME280;14785;52.556;13.430;2024-02-26T04:42:14;-7603.34;;;6.35;100.00
27294;BME280;14785;52.556;13.430;2024-02-26T04:44:39;-8114.66;;;6.33;100.00
27294;BME280;14785;52.556;13.430;2024-02-26T04:47:05;-7721.56;;;6.40;100.00
27294;BME280;14785;52.556;13.430;2024-02-26T04:49:32;-8544.59;;;6.36;100.00
27294;BME280;14785;52.556;13.430;2024-02-26T04:51:57;-6761.09;;;6.56;100.00
27294;BME280;14785;52.556;13.430;2024-02-26T04:54:22;-7897.00;;;6.53;100.00
27294;BME280;14785;52.556;13.430;2024-02-26T04:56:48;-6818.59;;;6.68;100.00
27294;BME280;14785;52.556;13.430;2024-02-26T04:59:14;-8416.09;;;6.72;100.00
27294;BME280;14785;52.556;13.430;2024-02-26T05:01:40;-9444.63;;;6.72;100.00
27294;BME280;14785;52.556;13.430;2024-02-26T05:04:07;-10414.59;;;6.76;100.00
27294;BME280;14785;52.556;13.430;2024-02-26T05:06:32;-11233.41;;;6.79;100.00
27294;BME280;14785;52.556;13.430;2024-02-26T05:08:59;-12486.16;;;6.80;100.00
27294;BME280;14785;52.556;13.430;2024-02-26T05:11:25;-13923.28;;;6.72;100.00
27294;BME280;14785;52.556;13.430;2024-02-26T05:13:50;-13930.97;;;6.72;100.00
27294;BME280;14785;52.556;13.430;2024-02-26T05:16:15;-14501.13;;;6.75;100.00
27294;BME280;14785;52.556;13.430;2024-02-26T05:18:41;-14152.75;;;6.70;100.00
27294;BME280;14785;52.556;13.430;2024-02-26T05:21:07;-13583.53;;;6.72;100.00
27294;BME280;14785;52.556;13.430;2024-02-26T05:23:32;-13148.63;;;6.82;100.00
27294;BME280;14785;52.556;13.430;2024-02-26T05:25:58;-14291.13;;;6.72;100.00
27294;BME280;14785;52.556;13.430;2024-02-26T05:28:23;-13110.03;;;6.68;100.00
27294;BME280;14785;52.556;13.430;2024-02-26T05:30:49;-12328.72;;;6.85;100.00
27294;BME280;14785;52.556;13.430;2024-02-26T05:33:14;-13446.56;;;6.77;100.00
27294;BME280;14785;52.556;13.430;2024-02-26T05:35:40;-12758.41;;;6.73;100.00
27294;BME280;14785;52.556;13.430;2024-02-26T05:38:07;-13100.41;;;6.71;100.00
27294;BME280;14785;52.556;13.430;2024-02-26T05:40:33;-12742.28;;;6.69;100.00
27294;BME280;14785;52.556;13.430;2024-02-26T05:42:59;-12319.09;;;6.75;100.00
27294;BME280;14785;52.556;13.430;2024-02-26T05:45:25;-12834.56;;;6.71;100.00
27294;BME280;14785;52.556;13.430;2024-02-26T05:47:51;-12663.16;;;6.70;100.00
27294;BME280;14785;52.556;13.430;2024-02-26T05:50:16;-13955.13;;;6.54;100.00
27294;BME280;14785;52.556;13.430;2024-02-26T05:52:43;-13797.31;;;6.56;100.00
27294;BME280;14785;52.556;13.430;2024-02-26T05:55:09;-13604.66;;;6.63;100.00
27294;BME280;14785;52.556;13.430;2024-02-26T05:57:34;-12765.34;;;6.56;100.00
27294;BME280;14785;52.556;13.430;2024-02-26T06:00:00;-12278.31;;;6.48;100.00
27294;BME280;14785;52.556;13.430;2024-02-26T06:02:31;-11645.59;;;6.53;100.00
27294;BME280;14785;52.556;13.430;2024-02-26T06:04:57;-11593.78;;;6.49;100.00
27294;BME280;14785;52.556;13.430;2024-02-26T06:07:24;-11323.75;;;6.54;100.00
27294;BME280;14785;52.556;13.430;2024-02-26T06:09:49;-11190.84;;;6.54;100.00
27294;BME280;14785;52.556;13.430;2024-02-26T06:12:14;-12371.78;;;6.42;100.00
27294;BME280;14785;52.556;13.430;2024-02-26T06:14:44;-12961.25;;;6.39;100.00
27294;BME280;14785;52.556;13.430;2024-02-26T06:17:11;-14110.56;;;6.05;100.00
27294;BME280;14785;52.556;13.430;2024-02-26T06:19:36;-13219.06;;;6.13;100.00
27294;BME280;14785;52.556;13.430;2024-02-26T06:22:01;-13035.38;;;5.75;100.00
27294;BME280;14785;52.556;13.430;2024-02-26T06:24:27;-9584.28;;;5.75;100.00
27294;BME280;14785;52.556;13.430;2024-02-26T06:26:52;-6603.31;;;6.11;100.00
27294;BME280;14785;52.556;13.430;2024-02-26T06:29:18;-5599.97;;;6.04;100.00
27294;BME280;14785;52.556;13.430;2024-02-26T06:31:43;-4854.72;;;6.33;100.00
27294;BME280;14785;52.556;13.430;2024-02-26T06:34:09;-7230.38;;;6.40;100.00
27294;BME280;14785;52.556;13.430;2024-02-26T06:36:35;-7656.03;;;6.49;100.00
27294;BME280;14785;52.556;13.430;2024-02-26T06:39:01;-9106.28;;;6.48;100.00
27294;BME280;14785;52.556;13.430;2024-02-26T06:41:28;-11015.38;;;6.44;100.00
27294;BME280;14785;52.556;13.430;2024-02-26T06:43:55;-11353.06;;;6.31;100.00
27294;BME280;14785;52.556;13.430;2024-02-26T06:46:21;-10825.53;;;6.40;100.00
27294;BME280;14785;52.556;13.430;2024-02-26T06:48:47;-10613.97;;;6.43;100.00
27294;BME280;14785;52.556;13.430;2024-02-26T06:51:13;-10014.00;;;6.48;100.00
27294;BME280;14785;52.556;13.430;2024-02-26T06:53:38;-9111.66;;;6.69;100.00
27294;BME280;14785;52.556;13.430;2024-02-26T06:56:05;-9681.97;;;6.86;100.00
27294;BME280;14785;52.556;13.430;2024-02-26T06:58:30;-10708.53;;;6.75;100.00
27294;BME280;14785;52.556;13.430;2024-02-26T07:00:56;-12233.50;;;6.82;100.00
27294;BME280;14785;52.556;13.430;2024-02-26T07:03:24;-11370.47;;;6.88;100.00
27294;BME280;14785;52.556;13.430;2024-02-26T07:05:51;-11448.28;;;6.95;100.00
27294;BME280;14785;52.556;13.430;2024-02-26T07:08:19;-11527.34;;;7.08;100.00
27294;BME280;14785;52.556;13.430;2024-02-26T07:10:46;-11540.94;;;7.13;100.00
27294;BME280;14785;52.556;13.430;2024-02-26T07:13:11;-10989.81;;;7.22;100.00
27294;BME280;14785;52.556;13.430;2024-02-26T07:15:37;-11689.63;;;7.29;100.00
27294;BME280;14785;52.556;13.430;2024-02-26T07:18:03;-12301.78;;;7.47;100.00
27294;BME280;14785;52.556;13.430;2024-02-26T07:20:29;-12279.97;;;7.53;100.00
27294;BME280;14785;52.556;13.430;2024-02-26T07:22:55;-12489.13;;;7.63;100.00
27294;BME280;14785;52.556;13.430;2024-02-26T07:25:20;-13791.44;;;7.62;100.00
27294;BME280;14785;52.556;13.430;2024-02-26T07:27:46;-13096.84;;;7.56;100.00
27294;BME280;14785;52.556;13.430;2024-02-26T07:30:15;-12501.25;;;7.73;100.00
27294;BME280;14785;52.556;13.430;2024-02-26T07:32:42;-12645.94;;;7.80;100.00
27294;BME280;14785;52.556;13.430;2024-02-26T07:35:07;-12868.84;;;7.95;100.00
27294;BME280;14785;52.556;13.430;2024-02-26T07:37:32;-13014.47;;;8.19;100.00
27294;BME280;14785;52.556;13.430;2024-02-26T07:39:58;-14204.44;;;8.15;100.00
27294;BME280;14785;52.556;13.430;2024-02-26T07:42:24;-13474.56;;;8.02;100.00
27294;BME280;14785;52.556;13.430;2024-02-26T07:44:51;-13729.44;;;7.97;100.00
27294;BME280;14785;52.556;13.430;2024-02-26T07:47:18;-12870.34;;;8.16;100.00
27294;BME280;14785;52.556;13.430;2024-02-26T07:49:43;-13171.16;;;7.96;100.00
27294;BME280;14785;52.556;13.430;2024-02-26T07:52:08;-9734.16;;;7.82;100.00
27294;BME280;14785;52.556;13.430;2024-02-26T07:54:34;-7771.75;;;7.92;100.00
27294;BME280;14785;52.556;13.430;2024-02-26T07:56:59;-7577.78;;;7.76;100.00
27294;BME280;14785;52.556;13.430;2024-02-26T07:59:24;-4648.94;;;7.83;100.00
27294;BME280;14785;52.556;13.430;2024-02-26T08:01:53;-3887.41;;;7.47;100.00
27294;BME280;14785;52.556;13.430;2024-02-26T08:04:18;-2687.06;;;7.65;100.00
27294;BME280;14785;52.556;13.430;2024-02-26T08:06:44;-2507.22;;;7.60;100.00
27294;BME280;14785;52.556;13.430;2024-02-26T08:09:09;-1262.31;;;8.24;100.00
27294;BME280;14785;52.556;13.430;2024-02-26T08:11:35;-5026.94;;;8.71;100.00
27294;BME280;14785;52.556;13.430;2024-02-26T08:14:00;-8438.09;;;8.94;100.00
27294;BME280;14785;52.556;13.430;2024-02-26T08:16:27;-10230.19;;;9.11;100.00
27294;BME280;14785;52.556;13.430;2024-02-26T08:18:53;-13004.19;;;8.84;100.00
27294;BME280;14785;52.556;13.430;2024-02-26T08:21:18;-12857.25;;;9.33;100.00
27294;BME280;14785;52.556;13.430;2024-02-26T08:23:44;-15709.91;;;9.56;100.00
27294;BME280;14785;52.556;13.430;2024-02-26T08:26:09;-17043.69;;;9.67;100.00
27294;BME280;14785;52.556;13.430;2024-02-26T08:28:40;-18060.53;;;9.73;100.00
27294;BME280;14785;52.556;13.430;2024-02-26T08:31:05;-18567.41;;;9.88;100.00
27294;BME280;14785;52.556;13.430;2024-02-26T08:33:32;-19146.41;;;10.04;100.00
27294;BME280;14785;52.556;13.430;2024-02-26T08:35:59;-19704.13;;;10.11;100.00
27294;BME280;14785;52.556;13.430;2024-02-26T08:38:24;-19701.22;;;10.01;100.00
27294;BME280;14785;52.556;13.430;2024-02-26T08:40:50;-19702.91;;;10.07;100.00
27294;BME280;14785;52.556;13.430;2024-02-26T08:43:15;-19708.53;;;10.25;100.00
27294;BME280;14785;52.556;13.430;2024-02-26T08:45:40;-19707.00;;;10.20;100.00
27294;BME280;14785;52.556;13.430;2024-02-26T08:48:06;-19708.81;;;10.26;100.00
27294;BME280;14785;52.556;13.430;2024-02-26T08:50:32;-19708.53;;;10.25;100.00
27294;BME280;14785;52.556;13.430;2024-02-26T08:52:58;-19717.47;;;10.55;100.00
27294;BME280;14785;52.556;13.430;2024-02-26T08:55:24;-19711.25;;;10.34;100.00
27294;BME280;14785;52.556;13.430;2024-02-26T08:57:50;-19716.88;;;10.53;100.00
27294;BME280;14785;52.556;13.430;2024-02-26T09:00:17;-19720.34;;;10.64;100.00
27294;BME280;14785;52.556;13.430;2024-02-26T09:02:45;-19711.41;;;10.35;100.00
27294;BME280;14785;52.556;13.430;2024-02-26T09:05:10;-19708.22;;;10.24;100.00
27294;BME280;14785;52.556;13.430;2024-02-26T09:07:36;-19703.66;;;10.09;100.00
27294;BME280;14785;52.556;13.430;2024-02-26T09:10:01;-19709.59;;;10.29;100.00
27294;BME280;14785;52.556;13.430;2024-02-26T09:12:27;-19705.78;;;10.16;100.00
27294;BME280;14785;52.556;13.430;2024-02-26T09:14:52;-19712.47;;;10.38;100.00
27294;BME280;14785;52.556;13.430;2024-02-26T09:17:19;-19691.38;;;9.68;100.00
27294;BME280;14785;52.556;13.430;2024-02-26T09:19:44;-19583.03;;;9.98;100.00
27294;BME280;14785;52.556;13.430;2024-02-26T09:22:10;-19703.81;;;10.10;100.00
27294;BME280;14785;52.556;13.430;2024-02-26T09:24:36;-19701.53;;;10.02;100.00
27294;BME280;14785;52.556;13.430;2024-02-26T09:27:02;-19632.31;;;9.66;100.00
27294;BME280;14785;52.556;13.430;2024-02-26T09:29:29;-18745.72;;;9.84;100.00
27294;BME280;14785;52.556;13.430;2024-02-26T09:31:54;-18322.16;;;10.46;100.00
27294;BME280;14785;52.556;13.430;2024-02-26T09:34:20;-19478.69;;;10.69;100.00
27294;BME280;14785;52.556;13.430;2024-02-26T09:36:45;-19720.03;;;10.63;100.00
27294;BME280;14785;52.556;13.430;2024-02-26T09:39:11;-19717.31;;;10.54;100.00
27294;BME280;14785;52.556;13.430;2024-02-26T09:41:37;-19735.22;;;11.13;100.00
27294;BME280;14785;52.556;13.430;2024-02-26T09:44:04;-19737.34;;;11.20;100.00
27294;BME280;14785;52.556;13.430;2024-02-26T09:46:30;-19738.41;;;11.24;100.00
27294;BME280;14785;52.556;13.430;2024-02-26T09:48:56;-19735.81;;;11.15;100.00
27294;BME280;14785;52.556;13.430;2024-02-26T09:51:23;-19731.13;;;11.00;100.00
27294;BME280;14785;52.556;13.430;2024-02-26T09:53:52;-19737.34;;;11.20;100.00
27294;BME280;14785;52.556;13.430;2024-02-26T09:56:17;-19743.41;;;11.40;100.00
27294;BME280;14785;52.556;13.430;2024-02-26T09:58:43;-19747.19;;;11.53;100.00
27294;BME280;14785;52.556;13.430;2024-02-26T10:01:13;-19752.19;;;11.70;100.00
27294;BME280;14785;52.556;13.430;2024-02-26T10:03:47;-19741.72;;;11.35;100.00
27294;BME280;14785;52.556;13.430;2024-02-26T10:06:16;-19743.25;;;11.40;100.00
27294;BME280;14785;52.556;13.430;2024-02-26T10:08:41;-19731.44;;;11.01;100.00
27294;BME280;14785;52.556;13.430;2024-02-26T10:11:08;-19735.66;;;11.15;100.00
27294;BME280;14785;52.556;13.430;2024-02-26T10:13:35;-19743.09;;;11.39;100.00
27294;BME280;14785;52.556;13.430;2024-02-26T10:16:02;-19770.38;;;12.30;100.00
27294;BME280;14785;52.556;13.430;2024-02-26T10:18:53;-19782.50;;;12.70;100.00
27294;BME280;14785;52.556;13.430;2024-02-26T10:21:22;-19793.41;;;13.06;100.00
27294;BME280;14785;52.556;13.430;2024-02-26T10:23:49;-19791.75;;;13.00;100.00
27294;BME280;14785;52.556;13.430;2024-02-26T10:26:16;-19803.88;;;13.40;100.00
27294;BME280;14785;52.556;13.430;2024-02-26T10:28:43;-19818.56;;;13.89;100.00
27294;BME280;14785;52.556;13.430;2024-02-26T10:31:09;-19820.97;;;13.97;100.00
27294;BME280;14785;52.556;13.430;2024-02-26T10:33:39;-19841.41;;;14.65;100.00
27294;BME280;14785;52.556;13.430;2024-02-26T10:36:06;-19866.06;;;15.47;100.00
27294;BME280;14785;52.556;13.430;2024-02-26T10:38:33;-19865.47;;;15.45;100.00
27294;BME280;14785;52.556;13.430;2024-02-26T10:40:59;-19852.47;;;15.01;100.00
27294;BME280;14785;52.556;13.430;2024-02-26T10:43:28;-19851.56;;;14.98;100.00
27294;BME280;14785;52.556;13.430;2024-02-26T10:45:57;-19857.00;;;15.16;100.00
27294;BME280;14785;52.556;13.430;2024-02-26T10:48:23;-19876.06;;;15.80;100.00
27294;BME280;14785;52.556;13.430;2024-02-26T10:50:48;-19887.41;;;16.17;100.00
27294;BME280;14785;52.556;13.430;2024-02-26T10:53:18;-19894.19;;;16.40;100.00
27294;BME280;14785;52.556;13.430;2024-02-26T10:56:05;-19892.38;;;16.34;100.00
27294;BME280;14785;52.556;13.430;2024-02-26T10:58:31;-19871.22;;;15.64;100.00
27294;BME280;14785;52.556;13.430;2024-02-26T11:00:57;-19878.47;;;15.88;100.00
27294;BME280;14785;52.556;13.430;2024-02-26T11:03:25;-19887.25;;;16.17;100.00
27294;BME280;14785;52.556;13.430;2024-02-26T11:05:50;-19878.16;;;15.87;100.00
27294;BME280;14785;52.556;13.430;2024-02-26T11:08:18;-19846.56;;;14.82;100.00
27294;BME280;14785;52.556;13.430;2024-02-26T11:10:54;-19874.09;;;15.73;100.00
27294;BME280;14785;52.556;13.430;2024-02-26T11:13:21;-19883.31;;;16.04;100.00
27294;BME280;14785;52.556;13.430;2024-02-26T11:15:47;-19894.50;;;16.41;100.00
27294;BME280;14785;52.556;13.430;2024-02-26T11:18:16;-19896.91;;;16.49;100.00
27294;BME280;14785;52.556;13.430;2024-02-26T11:20:45;-19905.84;;;16.78;100.00
27294;BME280;14785;52.556;13.430;2024-02-26T11:23:11;-19901.16;;;16.63;100.00
27294;BME280;14785;52.556;13.430;2024-02-26T11:25:37;-19912.19;;;16.99;100.00
27294;BME280;14785;52.556;13.430;2024-02-26T11:28:06;-19922.00;;;17.32;100.00
27294;BME280;14785;52.556;13.430;2024-02-26T11:30:36;-19923.22;;;17.36;100.00
27294;BME280;14785;52.556;13.430;2024-02-26T11:33:06;-19932.88;;;17.68;100.00
27294;BME280;14785;52.556;13.430;2024-02-26T11:35:36;-19935.00;;;17.75;100.00
27294;BME280;14785;52.556;13.430;2024-02-26T11:38:01;-19918.06;;;17.19;100.00
27294;BME280;14785;52.556;13.430;2024-02-26T11:40:30;-19915.66;;;17.11;100.00
27294;BME280;14785;52.556;13.430;2024-02-26T11:42:56;-19916.56;;;17.14;100.00
27294;BME280;14785;52.556;13.430;2024-02-26T11:48:14;-19907.34;;;16.83;100.00
27294;BME280;14785;52.556;13.430;2024-02-26T11:50:48;-19905.38;;;16.77;100.00
27294;BME280;14785;52.556;13.430;2024-02-26T11:53:30;-19902.38;;;16.67;100.00
27294;BME280;14785;52.556;13.430;2024-02-26T11:58:41;-19892.22;;;16.33;100.00
27294;BME280;14785;52.556;13.430;2024-02-26T12:01:35;-19889.66;;;16.25;100.00
27294;BME280;14785;52.556;13.430;2024-02-26T12:04:02;-19898.72;;;16.55;100.00
27294;BME280;14785;52.556;13.430;2024-02-26T12:06:27;-19915.34;;;17.10;100.00
27294;BME280;14785;52.556;13.430;2024-02-26T12:08:56;-19922.59;;;17.34;100.00
27294;BME280;14785;52.556;13.430;2024-02-26T12:11:21;-19912.78;;;17.01;100.00
27294;BME280;14785;52.556;13.430;2024-02-26T12:13:47;-19906.28;;;16.80;100.00
27294;BME280;14785;52.556;13.430;2024-02-26T12:16:36;-19906.44;;;16.80;100.00
27294;BME280;14785;52.556;13.430;2024-02-26T12:19:06;-19896.47;;;16.47;100.00
27294;BME280;14785;52.556;13.430;2024-02-26T12:21:36;-19896.91;;;16.49;100.00
27294;BME280;14785;52.556;13.430;2024-02-26T12:24:13;-19904.78;;;16.75;100.00
27294;BME280;14785;52.556;13.430;2024-02-26T12:26:39;-19920.19;;;17.26;100.00
27294;BME280;14785;52.556;13.430;2024-02-26T12:29:05;-19925.03;;;17.42;100.00
27294;BME280;14785;52.556;13.430;2024-02-26T12:31:32;-19931.06;;;17.62;100.00
27294;BME280;14785;52.556;13.430;2024-02-26T12:33:57;-19920.78;;;17.28;100.00
27294;BME280;14785;52.556;13.430;2024-02-26T12:36:23;-19941.94;;;17.98;100.00
27294;BME280;14785;52.556;13.430;2024-02-26T12:38:52;-19944.50;;;18.07;100.00
27294;BME280;14785;52.556;13.430;2024-02-26T12:41:18;-19942.38;;;18.00;100.00